createdAt,value
2018-10-02T00:02:26.336Z,101010.66
2018-10-02T00:07:23.844Z,101017.09
2018-10-02T00:13:24.425Z,101009.22
2018-10-02T00:18:21.902Z,101012.27
2018-10-02T00:23:19.422Z,101013.56
2018-10-02T00:28:16.921Z,101011.60
2018-10-02T00:33:14.422Z,101006.26
2018-10-02T00:38:11.899Z,100997.04
2018-10-02T00:43:09.384Z,100992.19
2018-10-02T00:48:06.855Z,101003.45
2018-10-02T00:53:04.321Z,101003.44
2018-10-02T00:58:01.793Z,100997.84
2018-10-02T01:02:59.288Z,100992.50
2018-10-02T01:07:56.774Z,100983.31
2018-10-02T01:12:54.301Z,101000.81
2018-10-02T01:17:51.765Z,100999.98
2018-10-02T01:22:49.226Z,100993.64
2018-10-02T01:27:46.683Z,100994.07
2018-10-02T01:32:44.153Z,100995.63
2018-10-02T01:37:41.628Z,100984.53
2018-10-02T01:42:39.093Z,100976.32
2018-10-02T01:47:36.561Z,100988.21
2018-10-02T01:52:34.125Z,100970.05
2018-10-02T01:57:31.602Z,100979.56
2018-10-02T02:02:29.068Z,100975.66
2018-10-02T02:07:26.537Z,100958.77
2018-10-02T02:12:24.012Z,100951.36
2018-10-02T02:17:21.478Z,100950.21
2018-10-02T02:22:18.975Z,100944.59
2018-10-02T02:27:16.522Z,100948.84
2018-10-02T02:32:14.001Z,100948.56
2018-10-02T02:37:11.453Z,100943.45
2018-10-02T02:42:08.939Z,100931.16
2018-10-02T02:47:12.014Z,100922.34
2018-10-02T02:52:09.836Z,100919.64
2018-10-02T02:57:07.430Z,100906.23
2018-10-02T03:02:04.864Z,100878.45
2018-10-02T03:07:02.328Z,100885.95
2018-10-02T03:11:59.794Z,100875.61
2018-10-02T03:16:57.261Z,100874.33
2018-10-02T03:21:54.798Z,100870.33
2018-10-02T03:26:52.241Z,100852.89
2018-10-02T03:31:49.707Z,100855.64
2018-10-02T03:36:47.205Z,100853.00
2018-10-02T03:41:44.821Z,100858.30
2018-10-02T03:46:42.283Z,100861.40
2018-10-02T03:51:39.753Z,100849.34
2018-10-02T03:56:37.229Z,100832.94
2018-10-02T04:01:34.748Z,100847.80
2018-10-02T04:06:32.233Z,100829.49
2018-10-02T04:11:29.722Z,100847.56
2018-10-02T04:16:27.211Z,100843.45
2018-10-02T04:21:31.301Z,100809.19
2018-10-02T04:26:28.758Z,100803.33
2018-10-02T04:31:33.309Z,100789.52
2018-10-02T04:36:30.833Z,100796.48
2018-10-02T04:41:28.329Z,100786.70
2018-10-02T04:46:25.797Z,100776.35
2018-10-02T04:51:23.349Z,100759.76
2018-10-02T04:56:20.921Z,100764.46
2018-10-02T05:01:18.331Z,100766.03
2018-10-02T05:06:15.848Z,100757.92
2018-10-02T05:11:13.376Z,100747.65
2018-10-02T05:16:10.986Z,100758.95
2018-10-02T05:21:08.546Z,100758.00
2018-10-02T05:26:06.357Z,100763.76
2018-10-02T05:31:03.905Z,100759.88
2018-10-02T05:36:01.436Z,100760.86
2018-10-02T05:40:58.971Z,100761.69
2018-10-02T05:45:56.479Z,100765.73
2018-10-02T05:50:53.961Z,100764.16
2018-10-02T05:55:51.452Z,100754.08
2018-10-02T06:00:49.737Z,100748.98
2018-10-02T06:05:47.252Z,100741.21
2018-10-02T06:10:44.865Z,100745.83
2018-10-02T06:15:42.440Z,100742.81
2018-10-02T06:20:40.214Z,100740.09
2018-10-02T06:25:37.782Z,100733.64
2018-10-02T06:30:35.317Z,100724.19
2018-10-02T06:35:32.856Z,100720.91
2018-10-02T06:40:30.433Z,100719.26
2018-10-02T06:45:27.904Z,100714.00
2018-10-02T06:50:25.421Z,100708.42
2018-10-02T06:55:22.930Z,100706.11
2018-10-02T07:00:20.460Z,100685.75
2018-10-02T07:05:17.928Z,100672.94
2018-10-02T07:10:15.420Z,100666.29
2018-10-02T07:15:12.902Z,100658.23
2018-10-02T07:20:10.460Z,100655.64
2018-10-02T07:25:07.962Z,100652.34
2018-10-02T07:30:05.530Z,100648.09
2018-10-02T07:35:03.158Z,100642.34
2018-10-02T07:40:00.720Z,100637.57
2018-10-02T07:44:58.230Z,100620.36
2018-10-02T07:49:56.782Z,100622.77
2018-10-02T07:54:55.609Z,100622.22
2018-10-02T07:59:53.156Z,100628.16
2018-10-02T08:04:50.749Z,100609.38
2018-10-02T08:09:48.203Z,100595.30
2018-10-02T08:14:45.803Z,100593.97
2018-10-02T08:19:43.278Z,100576.25
2018-10-02T08:24:47.622Z,100572.70
2018-10-02T08:29:45.159Z,100570.77
2018-10-02T08:34:42.645Z,100576.01
2018-10-02T08:39:40.148Z,100561.88
2018-10-02T08:44:37.655Z,100567.03
2018-10-02T08:49:35.175Z,100554.21
2018-10-02T08:54:33.794Z,100563.75
2018-10-02T08:59:31.397Z,100545.94
2018-10-02T09:04:28.922Z,100528.90
2018-10-02T09:09:26.420Z,100538.02
2018-10-02T09:14:23.930Z,100523.19
2018-10-02T09:19:21.441Z,100521.02
2018-10-02T09:24:23.977Z,100507.06
2018-10-02T09:29:21.486Z,100508.32
2018-10-02T09:34:24.772Z,100504.63
2018-10-02T09:39:28.093Z,100516.03
2018-10-02T09:44:25.554Z,100501.36
2018-10-02T09:49:23.032Z,100493.09
2018-10-02T09:54:22.658Z,100494.73
2018-10-02T09:59:20.253Z,100506.20
2018-10-02T10:04:18.012Z,100518.00
2018-10-02T10:09:15.525Z,100503.05
2018-10-02T10:14:13.024Z,100515.27
2018-10-02T10:19:10.579Z,100501.73
2018-10-02T10:24:13.165Z,100479.81
2018-10-02T10:29:10.685Z,100489.55
2018-10-02T10:34:08.207Z,100491.17
2018-10-02T10:39:07.312Z,100479.31
2018-10-02T10:44:04.795Z,100492.08
2018-10-02T10:49:02.331Z,100476.76
2018-10-02T10:54:07.047Z,100488.24
2018-10-02T10:59:08.495Z,100490.70
2018-10-02T11:04:08.124Z,100489.82
2018-10-02T11:09:11.552Z,100475.64
2018-10-02T11:14:10.740Z,100480.89
2018-10-02T11:19:10.661Z,100456.70
2018-10-02T11:24:13.651Z,100446.45
2018-10-02T11:29:11.237Z,100457.59
2018-10-02T11:34:08.755Z,100460.76
2018-10-02T11:39:06.387Z,100442.89
2018-10-02T11:44:03.972Z,100438.06
2018-10-02T11:49:04.141Z,100431.09
2018-10-02T11:54:14.780Z,100426.36
2018-10-02T11:59:14.081Z,100412.96
2018-10-02T12:04:14.947Z,100405.53
2018-10-02T12:09:17.661Z,100399.88
2018-10-02T12:14:18.608Z,100406.54
2018-10-02T12:19:18.596Z,100393.69
2018-10-02T12:24:23.939Z,100392.30
2018-10-02T12:29:23.646Z,100385.81
2018-10-02T12:34:22.671Z,100379.00
2018-10-02T12:39:21.689Z,100370.59
2018-10-02T12:44:25.419Z,100372.03
2018-10-02T12:49:26.251Z,100372.03
2018-10-02T12:54:30.873Z,100360.70
2018-10-02T12:59:28.435Z,100366.78
2018-10-02T13:04:28.296Z,100363.66
2018-10-02T13:09:25.873Z,100365.91
2018-10-02T13:14:24.653Z,100366.94
2018-10-02T13:19:28.623Z,100367.47
2018-10-02T13:24:33.131Z,100360.89
2018-10-02T13:29:38.647Z,100351.09
2018-10-02T13:34:40.415Z,100338.37
2018-10-02T13:39:39.822Z,100335.34
2018-10-02T13:44:37.475Z,100337.77
2018-10-02T13:49:34.973Z,100340.72
2018-10-02T13:54:33.719Z,100339.69
2018-10-02T13:59:31.223Z,100326.53
2018-10-02T14:04:28.773Z,100318.84
2018-10-02T14:09:26.335Z,100324.22
2018-10-02T14:14:23.834Z,100324.39
2018-10-02T14:19:21.367Z,100324.17
2018-10-02T14:24:20.077Z,100330.37
2018-10-02T14:29:17.596Z,100335.70
2018-10-02T14:34:15.110Z,100339.86
2018-10-02T14:39:12.646Z,100340.36
2018-10-02T14:44:10.152Z,100348.14
2018-10-02T14:49:07.653Z,100359.66
2018-10-02T14:54:13.027Z,100368.77
2018-10-02T14:59:10.761Z,100365.92
2018-10-02T15:04:08.475Z,100368.08
2018-10-02T15:09:07.137Z,100378.50
2018-10-02T15:14:04.655Z,100364.91
2018-10-02T15:19:02.245Z,100370.86
2018-10-02T15:24:05.367Z,100358.51
2018-10-02T15:29:03.769Z,100375.22
2018-10-02T15:34:01.672Z,100369.71
2018-10-02T15:38:59.193Z,100371.41
2018-10-02T15:43:56.801Z,100378.02
2018-10-02T15:48:54.360Z,100370.23
2018-10-02T15:53:58.357Z,100377.22
2018-10-02T15:58:55.917Z,100386.73
2018-10-02T16:03:54.066Z,100379.00
2018-10-02T16:08:55.089Z,100370.08
2018-10-02T16:13:53.187Z,100380.51
2018-10-02T16:18:50.952Z,100398.85
2018-10-02T16:23:49.574Z,100400.84
2018-10-02T16:28:47.122Z,100406.19
2018-10-02T16:33:44.658Z,100414.22
2018-10-02T16:38:42.210Z,100404.66
2018-10-02T16:43:39.818Z,100412.45
2018-10-02T16:48:37.363Z,100414.28
2018-10-02T16:53:34.860Z,100414.41
2018-10-02T16:58:32.364Z,100416.77
2018-10-02T17:03:29.872Z,100419.11
2018-10-02T17:08:27.369Z,100435.40
2018-10-02T17:13:24.910Z,100442.00
2018-10-02T17:18:22.491Z,100444.39
2018-10-02T17:23:20.009Z,100449.73
2018-10-02T17:28:17.625Z,100459.09
2018-10-02T17:33:15.110Z,100467.05
2018-10-02T17:38:12.596Z,100472.81
2018-10-02T17:43:10.068Z,100463.84
2018-10-02T17:48:07.525Z,100470.08
2018-10-02T17:53:05.041Z,100477.00
2018-10-02T17:58:02.503Z,100473.06
2018-10-02T18:03:00.109Z,100486.67
2018-10-02T18:07:57.557Z,100481.29
2018-10-02T18:12:55.161Z,100491.11
2018-10-02T18:17:52.740Z,100503.28
2018-10-02T18:22:50.275Z,100493.27
2018-10-02T18:27:47.882Z,100497.45
2018-10-02T18:32:45.446Z,100505.58
2018-10-02T18:37:43.014Z,100499.11
2018-10-02T18:42:40.730Z,100499.31
2018-10-02T18:47:38.269Z,100510.76
2018-10-02T18:52:35.857Z,100505.70
2018-10-02T18:57:33.473Z,100507.55
2018-10-02T19:02:31.044Z,100509.06
2018-10-02T19:07:28.588Z,100506.53
2018-10-02T19:12:26.156Z,100513.51
2018-10-02T19:17:23.722Z,100528.73
2018-10-02T19:22:21.409Z,100531.78
2018-10-02T19:27:19.004Z,100525.57
2018-10-02T19:32:17.405Z,100542.91
2018-10-02T19:37:20.393Z,100566.03
2018-10-02T19:42:21.704Z,100568.25
2018-10-02T19:47:21.056Z,100566.85
2018-10-02T19:52:18.721Z,100580.81
2018-10-02T19:57:17.481Z,100585.04
2018-10-02T20:02:14.934Z,100587.69
2018-10-02T20:07:12.427Z,100593.16
2018-10-02T20:12:09.975Z,100600.53
2018-10-02T20:17:07.526Z,100594.64
2018-10-02T20:22:07.185Z,100598.56
2018-10-02T20:27:04.702Z,100588.92
2018-10-02T20:32:02.160Z,100601.75
2018-10-02T20:36:59.688Z,100609.02
2018-10-02T20:41:57.147Z,100603.08
2018-10-02T20:46:54.638Z,100611.97
2018-10-02T20:51:52.109Z,100624.76
2018-10-02T20:56:49.586Z,100622.44
2018-10-02T21:01:47.035Z,100621.30
2018-10-02T21:06:44.509Z,100620.94
2018-10-02T21:11:41.984Z,100636.61
2018-10-02T21:16:42.750Z,100638.80
2018-10-02T21:21:41.444Z,100628.59
2018-10-02T21:26:40.859Z,100625.05
2018-10-02T21:31:38.797Z,100630.55
2018-10-02T21:36:36.247Z,100623.56
2018-10-02T21:41:33.721Z,100632.38
2018-10-02T21:46:31.174Z,100639.12
2018-10-02T21:51:28.665Z,100641.83
2018-10-02T21:56:26.148Z,100638.64
2018-10-02T22:01:28.196Z,100643.54
2018-10-02T22:06:25.657Z,100644.94
2018-10-02T22:11:23.145Z,100660.09
2018-10-02T22:16:20.617Z,100664.35
2018-10-02T22:21:18.138Z,100673.48
2018-10-02T22:26:15.680Z,100669.50
2018-10-02T22:31:13.358Z,100660.87
2018-10-02T22:36:10.822Z,100666.05
2018-10-02T22:41:08.307Z,100663.81
2018-10-02T22:46:06.546Z,100669.02
2018-10-02T22:51:04.037Z,100665.63
2018-10-02T22:56:01.521Z,100661.76
2018-10-02T23:00:59.034Z,100660.83
2018-10-02T23:05:56.545Z,100668.92
2018-10-02T23:10:54.085Z,100683.19
2018-10-02T23:15:51.537Z,100694.03
2018-10-02T23:20:48.989Z,100696.72
2018-10-02T23:25:46.469Z,100704.86
2018-10-02T23:30:43.941Z,100701.84
2018-10-02T23:35:41.470Z,100688.52
2018-10-02T23:40:38.947Z,100706.53
2018-10-02T23:45:36.418Z,100701.66
2018-10-02T23:50:33.902Z,100698.78
2018-10-02T23:55:31.385Z,100716.00
